sensor_id;sensor_type;location;lat;lon;timestamp;temperature;humidity
73572;DHT22;61854;48.510;-2.770;2023-05-10T00:00:56;12.40;95.20
73572;DHT22;61854;48.510;-2.770;2023-05-10T00:03:21;12.40;95.30
73572;DHT22;61854;48.510;-2.770;2023-05-10T00:05:47;12.40;95.20
73572;DHT22;61854;48.510;-2.770;2023-05-10T00:08:12;12.40;95.10
73572;DHT22;61854;48.510;-2.770;2023-05-10T00:10:38;12.40;95.20
73572;DHT22;61854;48.510;-2.770;2023-05-10T00:13:03;12.50;95.00
73572;DHT22;61854;48.510;-2.770;2023-05-10T00:15:29;12.50;94.90
73572;DHT22;61854;48.510;-2.770;2023-05-10T00:17:56;12.40;95.00
73572;DHT22;61854;48.510;-2.770;2023-05-10T00:20:21;12.40;94.90
73572;DHT22;61854;48.510;-2.770;2023-05-10T00:22:47;12.40;94.90
73572;DHT22;61854;48.510;-2.770;2023-05-10T00:25:12;12.40;94.90
73572;DHT22;61854;48.510;-2.770;2023-05-10T00:27:38;12.40;94.80
73572;DHT22;61854;48.510;-2.770;2023-05-10T00:30:03;12.40;94.90
73572;DHT22;61854;48.510;-2.770;2023-05-10T00:32:29;12.40;94.80
73572;DHT22;61854;48.510;-2.770;2023-05-10T00:34:58;12.40;94.70
73572;DHT22;61854;48.510;-2.770;2023-05-10T00:37:23;12.40;95.00
73572;DHT22;61854;48.510;-2.770;2023-05-10T00:39:49;12.30;95.40
73572;DHT22;61854;48.510;-2.770;2023-05-10T00:42:14;12.30;95.10
73572;DHT22;61854;48.510;-2.770;2023-05-10T00:44:40;12.30;95.30
73572;DHT22;61854;48.510;-2.770;2023-05-10T00:47:06;12.30;95.30
73572;DHT22;61854;48.510;-2.770;2023-05-10T00:49:31;12.30;95.50
73572;DHT22;61854;48.510;-2.770;2023-05-10T00:51:57;12.30;95.30
73572;DHT22;61854;48.510;-2.770;2023-05-10T00:54:23;12.30;95.40
73572;DHT22;61854;48.510;-2.770;2023-05-10T00:56:48;12.30;95.50
73572;DHT22;61854;48.510;-2.770;2023-05-10T00:59:15;12.40;95.50
73572;DHT22;61854;48.510;-2.770;2023-05-10T01:01:42;12.40;95.40
73572;DHT22;61854;48.510;-2.770;2023-05-10T01:04:08;12.40;95.30
73572;DHT22;61854;48.510;-2.770;2023-05-10T01:06:35;12.40;95.20
73572;DHT22;61854;48.510;-2.770;2023-05-10T01:09:00;12.40;95.30
73572;DHT22;61854;48.510;-2.770;2023-05-10T01:11:26;12.40;95.30
73572;DHT22;61854;48.510;-2.770;2023-05-10T01:13:53;12.40;95.30
73572;DHT22;61854;48.510;-2.770;2023-05-10T01:16:20;12.40;95.40
73572;DHT22;61854;48.510;-2.770;2023-05-10T01:18:45;12.40;95.40
73572;DHT22;61854;48.510;-2.770;2023-05-10T01:21:16;12.40;95.60
73572;DHT22;61854;48.510;-2.770;2023-05-10T01:23:45;12.40;95.60
73572;DHT22;61854;48.510;-2.770;2023-05-10T01:26:45;12.30;95.40
73572;DHT22;61854;48.510;-2.770;2023-05-10T01:34:54;12.20;95.40
73572;DHT22;61854;48.510;-2.770;2023-05-10T01:37:20;12.20;95.60
73572;DHT22;61854;48.510;-2.770;2023-05-10T01:39:48;12.10;95.70
73572;DHT22;61854;48.510;-2.770;2023-05-10T01:42:20;12.10;95.80
73572;DHT22;61854;48.510;-2.770;2023-05-10T01:44:49;12.10;96.00
73572;DHT22;61854;48.510;-2.770;2023-05-10T01:49:53;12.10;96.10
73572;DHT22;61854;48.510;-2.770;2023-05-10T01:52:22;12.10;96.20
73572;DHT22;61854;48.510;-2.770;2023-05-10T01:55:11;12.00;96.20
73572;DHT22;61854;48.510;-2.770;2023-05-10T01:57:38;12.00;96.20
73572;DHT22;61854;48.510;-2.770;2023-05-10T02:00:05;12.00;96.20
73572;DHT22;61854;48.510;-2.770;2023-05-10T02:02:33;12.00;96.30
73572;DHT22;61854;48.510;-2.770;2023-05-10T02:05:02;11.90;96.40
73572;DHT22;61854;48.510;-2.770;2023-05-10T02:07:28;11.90;96.40
73572;DHT22;61854;48.510;-2.770;2023-05-10T02:09:53;11.90;96.50
73572;DHT22;61854;48.510;-2.770;2023-05-10T02:12:19;11.90;96.60
73572;DHT22;61854;48.510;-2.770;2023-05-10T02:14:45;11.90;96.70
73572;DHT22;61854;48.510;-2.770;2023-05-10T02:17:12;11.90;96.90
73572;DHT22;61854;48.510;-2.770;2023-05-10T02:19:38;11.90;96.90
73572;DHT22;61854;48.510;-2.770;2023-05-10T02:22:04;11.90;97.00
73572;DHT22;61854;48.510;-2.770;2023-05-10T02:24:30;11.90;97.10
73572;DHT22;61854;48.510;-2.770;2023-05-10T02:26:57;11.90;97.10
73572;DHT22;61854;48.510;-2.770;2023-05-10T02:29:23;12.00;97.70
73572;DHT22;61854;48.510;-2.770;2023-05-10T02:31:51;12.00;97.30
73572;DHT22;61854;48.510;-2.770;2023-05-10T02:34:17;12.00;97.40
73572;DHT22;61854;48.510;-2.770;2023-05-10T02:36:44;12.00;97.30
73572;DHT22;61854;48.510;-2.770;2023-05-10T02:39:10;12.00;97.40
73572;DHT22;61854;48.510;-2.770;2023-05-10T02:41:38;12.00;97.50
73572;DHT22;61854;48.510;-2.770;2023-05-10T02:44:05;12.00;97.50
73572;DHT22;61854;48.510;-2.770;2023-05-10T02:46:32;12.00;97.60
73572;DHT22;61854;48.510;-2.770;2023-05-10T02:48:57;12.00;97.60
73572;DHT22;61854;48.510;-2.770;2023-05-10T02:51:24;11.90;97.60
73572;DHT22;61854;48.510;-2.770;2023-05-10T02:53:50;11.90;97.60
73572;DHT22;61854;48.510;-2.770;2023-05-10T02:56:40;12.00;97.70
73572;DHT22;61854;48.510;-2.770;2023-05-10T02:59:04;12.00;97.70
73572;DHT22;61854;48.510;-2.770;2023-05-10T03:01:30;12.10;97.60
73572;DHT22;61854;48.510;-2.770;2023-05-10T03:03:55;12.10;97.50
73572;DHT22;61854;48.510;-2.770;2023-05-10T03:06:21;12.10;97.40
73572;DHT22;61854;48.510;-2.770;2023-05-10T03:08:46;12.10;97.30
73572;DHT22;61854;48.510;-2.770;2023-05-10T03:16:10;12.20;97.00
73572;DHT22;61854;48.510;-2.770;2023-05-10T03:18:42;12.20;97.00
73572;DHT22;61854;48.510;-2.770;2023-05-10T03:21:10;12.20;97.00
73572;DHT22;61854;48.510;-2.770;2023-05-10T03:23:47;12.20;96.90
73572;DHT22;61854;48.510;-2.770;2023-05-10T03:26:18;12.20;96.90
73572;DHT22;61854;48.510;-2.770;2023-05-10T03:28:45;12.20;96.90
73572;DHT22;61854;48.510;-2.770;2023-05-10T03:31:12;12.20;97.00
73572;DHT22;61854;48.510;-2.770;2023-05-10T03:33:45;12.20;97.00
73572;DHT22;61854;48.510;-2.770;2023-05-10T03:36:11;12.20;97.10
73572;DHT22;61854;48.510;-2.770;2023-05-10T03:38:36;12.20;97.20
73572;DHT22;61854;48.510;-2.770;2023-05-10T03:41:02;12.20;97.10
73572;DHT22;61854;48.510;-2.770;2023-05-10T03:43:27;12.30;97.30
73572;DHT22;61854;48.510;-2.770;2023-05-10T03:45:53;12.20;97.40
73572;DHT22;61854;48.510;-2.770;2023-05-10T03:48:19;12.30;97.50
73572;DHT22;61854;48.510;-2.770;2023-05-10T03:50:44;12.20;97.50
73572;DHT22;61854;48.510;-2.770;2023-05-10T03:53:10;12.30;97.80
73572;DHT22;61854;48.510;-2.770;2023-05-10T03:55:35;12.20;97.90
73572;DHT22;61854;48.510;-2.770;2023-05-10T03:58:01;12.10;98.10
73572;DHT22;61854;48.510;-2.770;2023-05-10T04:00:27;12.10;98.40
73572;DHT22;61854;48.510;-2.770;2023-05-10T04:02:52;12.10;98.50
73572;DHT22;61854;48.510;-2.770;2023-05-10T04:05:18;12.10;98.70
73572;DHT22;61854;48.510;-2.770;2023-05-10T04:07:43;12.10;99.30
73572;DHT22;61854;48.510;-2.770;2023-05-10T04:10:09;12.10;98.90
73572;DHT22;61854;48.510;-2.770;2023-05-10T04:12:35;12.10;98.80
73572;DHT22;61854;48.510;-2.770;2023-05-10T04:15:00;12.10;98.80
73572;DHT22;61854;48.510;-2.770;2023-05-10T04:17:26;12.10;98.90
73572;DHT22;61854;48.510;-2.770;2023-05-10T04:19:51;12.10;99.00
73572;DHT22;61854;48.510;-2.770;2023-05-10T04:22:20;12.10;99.10
73572;DHT22;61854;48.510;-2.770;2023-05-10T04:24:45;12.10;99.10
73572;DHT22;61854;48.510;-2.770;2023-05-10T04:27:11;12.10;99.10
73572;DHT22;61854;48.510;-2.770;2023-05-10T04:29:36;12.10;99.20
73572;DHT22;61854;48.510;-2.770;2023-05-10T04:32:02;12.10;99.20
73572;DHT22;61854;48.510;-2.770;2023-05-10T04:34:28;12.10;99.30
73572;DHT22;61854;48.510;-2.770;2023-05-10T04:36:54;12.10;99.20
73572;DHT22;61854;48.510;-2.770;2023-05-10T04:39:20;12.10;99.30
73572;DHT22;61854;48.510;-2.770;2023-05-10T04:41:45;12.10;99.30
73572;DHT22;61854;48.510;-2.770;2023-05-10T04:44:11;12.10;99.20
73572;DHT22;61854;48.510;-2.770;2023-05-10T04:46:37;12.10;99.30
73572;DHT22;61854;48.510;-2.770;2023-05-10T04:49:02;12.10;99.10
73572;DHT22;61854;48.510;-2.770;2023-05-10T04:51:28;12.10;99.20
73572;DHT22;61854;48.510;-2.770;2023-05-10T04:53:53;12.10;99.20
73572;DHT22;61854;48.510;-2.770;2023-05-10T04:56:19;12.00;99.30
73572;DHT22;61854;48.510;-2.770;2023-05-10T04:58:44;12.00;99.30
73572;DHT22;61854;48.510;-2.770;2023-05-10T05:01:10;11.90;99.40
73572;DHT22;61854;48.510;-2.770;2023-05-10T05:03:36;11.90;99.50
73572;DHT22;61854;48.510;-2.770;2023-05-10T05:06:01;11.90;99.50
73572;DHT22;61854;48.510;-2.770;2023-05-10T05:08:27;11.90;99.60
73572;DHT22;61854;48.510;-2.770;2023-05-10T05:10:52;12.00;99.80
73572;DHT22;61854;48.510;-2.770;2023-05-10T05:13:18;12.00;99.90
73572;DHT22;61854;48.510;-2.770;2023-05-10T05:15:43;12.10;99.90
73572;DHT22;61854;48.510;-2.770;2023-05-10T05:18:09;12.10;99.80
73572;DHT22;61854;48.510;-2.770;2023-05-10T05:20:34;12.10;99.80
73572;DHT22;61854;48.510;-2.770;2023-05-10T05:23:00;12.20;99.70
73572;DHT22;61854;48.510;-2.770;2023-05-10T05:25:26;12.20;99.70
73572;DHT22;61854;48.510;-2.770;2023-05-10T05:27:51;12.30;99.70
73572;DHT22;61854;48.510;-2.770;2023-05-10T05:30:17;12.30;99.80
73572;DHT22;61854;48.510;-2.770;2023-05-10T05:32:42;12.40;99.70
73572;DHT22;61854;48.510;-2.770;2023-05-10T05:35:08;12.50;99.80
73572;DHT22;61854;48.510;-2.770;2023-05-10T05:37:33;12.50;99.80
73572;DHT22;61854;48.510;-2.770;2023-05-10T05:39:59;12.50;99.70
73572;DHT22;61854;48.510;-2.770;2023-05-10T05:42:27;12.50;99.80
73572;DHT22;61854;48.510;-2.770;2023-05-10T05:44:52;12.50;99.90
73572;DHT22;61854;48.510;-2.770;2023-05-10T05:47:18;12.50;99.90
73572;DHT22;61854;48.510;-2.770;2023-05-10T05:49:43;12.50;99.90
73572;DHT22;61854;48.510;-2.770;2023-05-10T05:52:11;12.50;99.90
73572;DHT22;61854;48.510;-2.770;2023-05-10T05:54:36;12.40;99.90
73572;DHT22;61854;48.510;-2.770;2023-05-10T05:57:02;12.40;99.90
73572;DHT22;61854;48.510;-2.770;2023-05-10T05:59:27;12.30;99.90
73572;DHT22;61854;48.510;-2.770;2023-05-10T06:01:54;12.40;99.90
73572;DHT22;61854;48.510;-2.770;2023-05-10T06:04:19;12.30;99.90
73572;DHT22;61854;48.510;-2.770;2023-05-10T06:06:45;12.30;99.90
73572;DHT22;61854;48.510;-2.770;2023-05-10T06:09:10;12.30;99.90
73572;DHT22;61854;48.510;-2.770;2023-05-10T06:11:36;12.40;99.90
73572;DHT22;61854;48.510;-2.770;2023-05-10T06:14:02;12.30;99.90
73572;DHT22;61854;48.510;-2.770;2023-05-10T06:16:29;12.30;99.90
73572;DHT22;61854;48.510;-2.770;2023-05-10T06:18:55;12.30;99.90
73572;DHT22;61854;48.510;-2.770;2023-05-10T06:21:20;12.30;99.90
73572;DHT22;61854;48.510;-2.770;2023-05-10T06:23:46;12.40;99.90
73572;DHT22;61854;48.510;-2.770;2023-05-10T06:26:11;12.40;99.90
73572;DHT22;61854;48.510;-2.770;2023-05-10T06:28:37;12.50;99.90
73572;DHT22;61854;48.510;-2.770;2023-05-10T06:31:05;12.50;99.90
73572;DHT22;61854;48.510;-2.770;2023-05-10T06:33:31;12.50;99.90
73572;DHT22;61854;48.510;-2.770;2023-05-10T06:35:57;12.60;99.90
73572;DHT22;61854;48.510;-2.770;2023-05-10T06:38:23;12.60;99.90
73572;DHT22;61854;48.510;-2.770;2023-05-10T06:40:48;12.70;99.90
73572;DHT22;61854;48.510;-2.770;2023-05-10T06:43:14;12.80;99.90
73572;DHT22;61854;48.510;-2.770;2023-05-10T06:45:39;12.80;99.90
73572;DHT22;61854;48.510;-2.770;2023-05-10T06:48:06;12.90;99.90
73572;DHT22;61854;48.510;-2.770;2023-05-10T06:50:31;13.00;99.90
73572;DHT22;61854;48.510;-2.770;2023-05-10T06:52:57;13.00;99.90
73572;DHT22;61854;48.510;-2.770;2023-05-10T06:55:23;13.00;99.90
73572;DHT22;61854;48.510;-2.770;2023-05-10T06:57:49;13.00;99.90
73572;DHT22;61854;48.510;-2.770;2023-05-10T07:00:16;13.00;99.90
73572;DHT22;61854;48.510;-2.770;2023-05-10T07:02:42;13.00;99.90
73572;DHT22;61854;48.510;-2.770;2023-05-10T07:05:08;13.00;99.90
73572;DHT22;61854;48.510;-2.770;2023-05-10T07:07:33;13.10;99.90
73572;DHT22;61854;48.510;-2.770;2023-05-10T07:09:59;13.20;99.90
73572;DHT22;61854;48.510;-2.770;2023-05-10T07:12:25;13.30;99.90
73572;DHT22;61854;48.510;-2.770;2023-05-10T07:15:06;13.40;99.90
73572;DHT22;61854;48.510;-2.770;2023-05-10T07:17:51;13.40;99.70
73572;DHT22;61854;48.510;-2.770;2023-05-10T07:20:17;13.40;99.50
73572;DHT22;61854;48.510;-2.770;2023-05-10T07:22:42;13.40;99.90
73572;DHT22;61854;48.510;-2.770;2023-05-10T07:25:08;13.40;99.70
73572;DHT22;61854;48.510;-2.770;2023-05-10T07:27:34;13.40;99.60
73572;DHT22;61854;48.510;-2.770;2023-05-10T07:29:59;13.50;99.60
73572;DHT22;61854;48.510;-2.770;2023-05-10T07:32:25;13.50;99.50
73572;DHT22;61854;48.510;-2.770;2023-05-10T07:34:51;13.40;99.30
73572;DHT22;61854;48.510;-2.770;2023-05-10T07:37:17;13.40;99.20
73572;DHT22;61854;48.510;-2.770;2023-05-10T07:39:42;13.40;99.30
73572;DHT22;61854;48.510;-2.770;2023-05-10T07:42:08;13.40;99.40
73572;DHT22;61854;48.510;-2.770;2023-05-10T07:44:33;13.60;99.60
73572;DHT22;61854;48.510;-2.770;2023-05-10T07:46:59;13.60;99.40
73572;DHT22;61854;48.510;-2.770;2023-05-10T07:49:25;13.70;99.20
73572;DHT22;61854;48.510;-2.770;2023-05-10T07:51:50;13.70;99.10
73572;DHT22;61854;48.510;-2.770;2023-05-10T07:54:16;13.80;98.90
73572;DHT22;61854;48.510;-2.770;2023-05-10T07:56:42;13.70;99.00
73572;DHT22;61854;48.510;-2.770;2023-05-10T07:59:16;13.60;99.40
73572;DHT22;61854;48.510;-2.770;2023-05-10T08:01:41;13.60;99.90
73572;DHT22;61854;48.510;-2.770;2023-05-10T08:04:07;13.50;99.90
73572;DHT22;61854;48.510;-2.770;2023-05-10T08:06:33;13.50;99.90
73572;DHT22;61854;48.510;-2.770;2023-05-10T08:08:58;13.40;99.90
73572;DHT22;61854;48.510;-2.770;2023-05-10T08:11:24;13.50;99.90
73572;DHT22;61854;48.510;-2.770;2023-05-10T08:13:50;13.60;99.90
73572;DHT22;61854;48.510;-2.770;2023-05-10T08:16:16;13.70;99.90
73572;DHT22;61854;48.510;-2.770;2023-05-10T08:18:43;13.70;99.90
73572;DHT22;61854;48.510;-2.770;2023-05-10T08:21:08;13.60;99.90
73572;DHT22;61854;48.510;-2.770;2023-05-10T08:23:36;13.50;99.90
73572;DHT22;61854;48.510;-2.770;2023-05-10T08:26:03;13.50;99.90
73572;DHT22;61854;48.510;-2.770;2023-05-10T08:28:29;13.50;99.90
73572;DHT22;61854;48.510;-2.770;2023-05-10T08:30:55;13.60;99.90
73572;DHT22;61854;48.510;-2.770;2023-05-10T08:33:21;13.50;99.90
73572;DHT22;61854;48.510;-2.770;2023-05-10T08:35:46;13.60;99.90
73572;DHT22;61854;48.510;-2.770;2023-05-10T08:38:12;13.60;99.90
73572;DHT22;61854;48.510;-2.770;2023-05-10T08:40:38;13.80;99.90
73572;DHT22;61854;48.510;-2.770;2023-05-10T08:43:05;13.90;99.90
73572;DHT22;61854;48.510;-2.770;2023-05-10T08:45:33;13.90;99.70
73572;DHT22;61854;48.510;-2.770;2023-05-10T08:48:02;14.00;98.60
73572;DHT22;61854;48.510;-2.770;2023-05-10T08:50:28;14.10;97.90
73572;DHT22;61854;48.510;-2.770;2023-05-10T08:52:55;14.20;97.60
73572;DHT22;61854;48.510;-2.770;2023-05-10T08:55:23;14.30;97.10
73572;DHT22;61854;48.510;-2.770;2023-05-10T08:57:49;14.40;96.50
73572;DHT22;61854;48.510;-2.770;2023-05-10T09:00:15;14.50;95.70
73572;DHT22;61854;48.510;-2.770;2023-05-10T09:02:42;14.60;95.60
73572;DHT22;61854;48.510;-2.770;2023-05-10T09:05:08;14.70;95.60
73572;DHT22;61854;48.510;-2.770;2023-05-10T09:07:35;14.80;95.30
73572;DHT22;61854;48.510;-2.770;2023-05-10T09:10:00;14.80;95.90
73572;DHT22;61854;48.510;-2.770;2023-05-10T09:12:26;14.90;92.90
73572;DHT22;61854;48.510;-2.770;2023-05-10T09:14:52;14.80;93.10
73572;DHT22;61854;48.510;-2.770;2023-05-10T09:17:19;14.80;93.60
73572;DHT22;61854;48.510;-2.770;2023-05-10T09:19:45;15.00;93.50
73572;DHT22;61854;48.510;-2.770;2023-05-10T09:22:10;15.00;93.40
73572;DHT22;61854;48.510;-2.770;2023-05-10T09:24:36;15.10;93.00
73572;DHT22;61854;48.510;-2.770;2023-05-10T09:27:07;15.20;93.50
73572;DHT22;61854;48.510;-2.770;2023-05-10T09:29:39;15.30;92.60
73572;DHT22;61854;48.510;-2.770;2023-05-10T09:32:05;15.30;92.40
73572;DHT22;61854;48.510;-2.770;2023-05-10T09:34:31;15.40;92.00
73572;DHT22;61854;48.510;-2.770;2023-05-10T09:36:58;15.40;91.90
73572;DHT22;61854;48.510;-2.770;2023-05-10T09:39:35;15.50;91.70
73572;DHT22;61854;48.510;-2.770;2023-05-10T09:42:02;15.60;91.40
73572;DHT22;61854;48.510;-2.770;2023-05-10T09:44:31;15.70;91.20
73572;DHT22;61854;48.510;-2.770;2023-05-10T09:46:58;15.70;91.00
73572;DHT22;61854;48.510;-2.770;2023-05-10T09:49:23;15.70;91.60
73572;DHT22;61854;48.510;-2.770;2023-05-10T09:52:02;15.60;91.40
73572;DHT22;61854;48.510;-2.770;2023-05-10T09:54:28;15.60;92.30
73572;DHT22;61854;48.510;-2.770;2023-05-10T09:56:53;15.60;91.80
73572;DHT22;61854;48.510;-2.770;2023-05-10T09:59:19;15.60;90.20
73572;DHT22;61854;48.510;-2.770;2023-05-10T10:01:51;15.50;90.20
73572;DHT22;61854;48.510;-2.770;2023-05-10T10:04:16;15.50;90.10
73572;DHT22;61854;48.510;-2.770;2023-05-10T10:06:42;15.40;90.60
73572;DHT22;61854;48.510;-2.770;2023-05-10T10:09:08;15.50;90.60
73572;DHT22;61854;48.510;-2.770;2023-05-10T10:11:34;15.60;89.80
73572;DHT22;61854;48.510;-2.770;2023-05-10T10:13:59;15.60;90.80
73572;DHT22;61854;48.510;-2.770;2023-05-10T10:16:27;15.50;91.30
73572;DHT22;61854;48.510;-2.770;2023-05-10T10:18:52;15.40;91.60
73572;DHT22;61854;48.510;-2.770;2023-05-10T10:21:18;15.50;91.40
73572;DHT22;61854;48.510;-2.770;2023-05-10T10:23:44;15.50;91.00
73572;DHT22;61854;48.510;-2.770;2023-05-10T10:26:11;15.50;90.70
73572;DHT22;61854;48.510;-2.770;2023-05-10T10:28:51;15.40;90.80
73572;DHT22;61854;48.510;-2.770;2023-05-10T10:31:27;15.50;90.40
73572;DHT22;61854;48.510;-2.770;2023-05-10T10:34:05;15.40;90.40
73572;DHT22;61854;48.510;-2.770;2023-05-10T10:36:32;15.30;90.30
73572;DHT22;61854;48.510;-2.770;2023-05-10T10:38:59;15.40;90.40
73572;DHT22;61854;48.510;-2.770;2023-05-10T10:52:13;16.00;88.90
73572;DHT22;61854;48.510;-2.770;2023-05-10T10:54:39;16.20;86.40
73572;DHT22;61854;48.510;-2.770;2023-05-10T10:57:10;16.30;85.50
73572;DHT22;61854;48.510;-2.770;2023-05-10T10:59:41;16.40;83.40
73572;DHT22;61854;48.510;-2.770;2023-05-10T11:02:07;16.40;82.10
73572;DHT22;61854;48.510;-2.770;2023-05-10T11:04:41;16.20;81.60
73572;DHT22;61854;48.510;-2.770;2023-05-10T11:07:16;16.30;83.00
73572;DHT22;61854;48.510;-2.770;2023-05-10T11:09:41;16.40;82.30
73572;DHT22;61854;48.510;-2.770;2023-05-10T11:12:10;16.50;81.90
73572;DHT22;61854;48.510;-2.770;2023-05-10T11:14:35;16.40;81.90
73572;DHT22;61854;48.510;-2.770;2023-05-10T11:17:01;16.40;80.50
73572;DHT22;61854;48.510;-2.770;2023-05-10T11:19:27;16.60;79.20
73572;DHT22;61854;48.510;-2.770;2023-05-10T11:24:30;16.70;78.30
73572;DHT22;61854;48.510;-2.770;2023-05-10T11:26:56;16.50;81.40
73572;DHT22;61854;48.510;-2.770;2023-05-10T11:29:22;16.20;83.80
73572;DHT22;61854;48.510;-2.770;2023-05-10T11:31:48;15.80;85.20
73572;DHT22;61854;48.510;-2.770;2023-05-10T11:34:24;15.40;86.30
73572;DHT22;61854;48.510;-2.770;2023-05-10T11:36:54;15.20;87.30
73572;DHT22;61854;48.510;-2.770;2023-05-10T11:39:25;15.30;88.60
73572;DHT22;61854;48.510;-2.770;2023-05-10T11:41:51;15.40;89.50
73572;DHT22;61854;48.510;-2.770;2023-05-10T11:44:16;15.60;88.20
73572;DHT22;61854;48.510;-2.770;2023-05-10T11:46:42;15.70;86.00
73572;DHT22;61854;48.510;-2.770;2023-05-10T11:49:07;16.00;85.10
73572;DHT22;61854;48.510;-2.770;2023-05-10T11:51:34;16.20;84.10
73572;DHT22;61854;48.510;-2.770;2023-05-10T11:54:01;16.30;80.90
73572;DHT22;61854;48.510;-2.770;2023-05-10T11:56:32;16.30;79.10
73572;DHT22;61854;48.510;-2.770;2023-05-10T11:58:57;16.30;79.40
73572;DHT22;61854;48.510;-2.770;2023-05-10T12:01:24;16.30;79.50
73572;DHT22;61854;48.510;-2.770;2023-05-10T12:03:50;16.40;79.40
73572;DHT22;61854;48.510;-2.770;2023-05-10T12:06:17;16.50;79.80
73572;DHT22;61854;48.510;-2.770;2023-05-10T12:08:46;16.70;78.20
73572;DHT22;61854;48.510;-2.770;2023-05-10T12:11:12;16.70;76.40
73572;DHT22;61854;48.510;-2.770;2023-05-10T12:13:39;16.60;77.20
73572;DHT22;61854;48.510;-2.770;2023-05-10T12:16:14;16.50;76.50
73572;DHT22;61854;48.510;-2.770;2023-05-10T12:18:40;16.40;76.20
73572;DHT22;61854;48.510;-2.770;2023-05-10T12:21:09;16.40;75.10
73572;DHT22;61854;48.510;-2.770;2023-05-10T12:23:35;16.40;76.50
73572;DHT22;61854;48.510;-2.770;2023-05-10T12:26:02;16.40;77.10
73572;DHT22;61854;48.510;-2.770;2023-05-10T12:28:29;16.60;76.10
73572;DHT22;61854;48.510;-2.770;2023-05-10T12:30:55;16.70;75.90
73572;DHT22;61854;48.510;-2.770;2023-05-10T12:33:22;16.80;75.80
73572;DHT22;61854;48.510;-2.770;2023-05-10T12:35:48;17.00;74.70
73572;DHT22;61854;48.510;-2.770;2023-05-10T12:40:54;17.20;72.90
73572;DHT22;61854;48.510;-2.770;2023-05-10T12:43:19;17.20;73.00
73572;DHT22;61854;48.510;-2.770;2023-05-10T12:45:45;17.40;70.50
73572;DHT22;61854;48.510;-2.770;2023-05-10T12:48:13;17.40;68.40
73572;DHT22;61854;48.510;-2.770;2023-05-10T12:50:38;17.40;67.70
73572;DHT22;61854;48.510;-2.770;2023-05-10T12:53:04;17.20;68.00
73572;DHT22;61854;48.510;-2.770;2023-05-10T12:55:30;17.00;68.60
73572;DHT22;61854;48.510;-2.770;2023-05-10T12:57:55;16.90;69.30
73572;DHT22;61854;48.510;-2.770;2023-05-10T13:00:21;16.80;70.60
73572;DHT22;61854;48.510;-2.770;2023-05-10T13:02:46;16.70;71.40
73572;DHT22;61854;48.510;-2.770;2023-05-10T13:05:12;16.70;72.10
73572;DHT22;61854;48.510;-2.770;2023-05-10T13:07:38;16.80;70.70
73572;DHT22;61854;48.510;-2.770;2023-05-10T13:10:04;16.80;70.90
73572;DHT22;61854;48.510;-2.770;2023-05-10T13:12:30;16.90;70.70
73572;DHT22;61854;48.510;-2.770;2023-05-10T13:14:56;16.90;70.10
73572;DHT22;61854;48.510;-2.770;2023-05-10T13:17:21;16.80;70.00
73572;DHT22;61854;48.510;-2.770;2023-05-10T13:19:47;16.70;70.70
73572;DHT22;61854;48.510;-2.770;2023-05-10T13:22:13;16.60;71.20
73572;DHT22;61854;48.510;-2.770;2023-05-10T13:24:38;16.70;72.00
73572;DHT22;61854;48.510;-2.770;2023-05-10T13:27:04;16.90;72.00
73572;DHT22;61854;48.510;-2.770;2023-05-10T13:29:29;17.10;71.00
73572;DHT22;61854;48.510;-2.770;2023-05-10T13:31:55;17.20;69.30
73572;DHT22;61854;48.510;-2.770;2023-05-10T13:34:20;17.30;70.30
73572;DHT22;61854;48.510;-2.770;2023-05-10T13:36:46;17.50;69.20
73572;DHT22;61854;48.510;-2.770;2023-05-10T13:39:12;17.80;68.80
73572;DHT22;61854;48.510;-2.770;2023-05-10T13:41:37;18.10;67.00
73572;DHT22;61854;48.510;-2.770;2023-05-10T13:44:03;17.90;66.40
73572;DHT22;61854;48.510;-2.770;2023-05-10T13:46:29;17.70;67.70
73572;DHT22;61854;48.510;-2.770;2023-05-10T13:48:55;17.50;67.20
73572;DHT22;61854;48.510;-2.770;2023-05-10T13:51:20;17.30;67.60
73572;DHT22;61854;48.510;-2.770;2023-05-10T13:53:46;17.20;68.40
73572;DHT22;61854;48.510;-2.770;2023-05-10T13:56:12;17.30;67.60
73572;DHT22;61854;48.510;-2.770;2023-05-10T13:58:38;17.50;67.20
73572;DHT22;61854;48.510;-2.770;2023-05-10T14:01:03;17.80;65.20
73572;DHT22;61854;48.510;-2.770;2023-05-10T14:03:30;17.80;63.90
73572;DHT22;61854;48.510;-2.770;2023-05-10T14:05:55;17.70;64.30
73572;DHT22;61854;48.510;-2.770;2023-05-10T14:08:21;17.50;64.00
73572;DHT22;61854;48.510;-2.770;2023-05-10T14:10:46;17.30;64.80
73572;DHT22;61854;48.510;-2.770;2023-05-10T14:13:12;17.30;66.10
73572;DHT22;61854;48.510;-2.770;2023-05-10T14:15:38;17.50;66.70
73572;DHT22;61854;48.510;-2.770;2023-05-10T14:18:03;17.70;66.60
73572;DHT22;61854;48.510;-2.770;2023-05-10T14:20:29;18.00;64.50
73572;DHT22;61854;48.510;-2.770;2023-05-10T14:22:54;18.20;64.10
73572;DHT22;61854;48.510;-2.770;2023-05-10T14:25:20;18.10;63.00
73572;DHT22;61854;48.510;-2.770;2023-05-10T14:27:46;18.00;64.10
73572;DHT22;61854;48.510;-2.770;2023-05-10T14:30:11;17.80;64.80
73572;DHT22;61854;48.510;-2.770;2023-05-10T14:32:37;17.70;63.90
73572;DHT22;61854;48.510;-2.770;2023-05-10T14:35:03;17.50;64.20
73572;DHT22;61854;48.510;-2.770;2023-05-10T14:37:28;17.40;65.50
73572;DHT22;61854;48.510;-2.770;2023-05-10T14:39:54;17.20;65.90
73572;DHT22;61854;48.510;-2.770;2023-05-10T14:42:19;17.20;65.80
73572;DHT22;61854;48.510;-2.770;2023-05-10T14:44:45;17.20;65.80
73572;DHT22;61854;48.510;-2.770;2023-05-10T14:47:10;17.20;65.70
73572;DHT22;61854;48.510;-2.770;2023-05-10T14:49:36;17.20;64.70
73572;DHT22;61854;48.510;-2.770;2023-05-10T14:52:02;17.60;64.80
73572;DHT22;61854;48.510;-2.770;2023-05-10T14:54:28;18.30;62.70
73572;DHT22;61854;48.510;-2.770;2023-05-10T14:56:53;19.10;60.00
73572;DHT22;61854;48.510;-2.770;2023-05-10T14:59:20;19.70;56.70
73572;DHT22;61854;48.510;-2.770;2023-05-10T15:01:45;19.40;56.80
73572;DHT22;61854;48.510;-2.770;2023-05-10T15:04:11;18.90;58.90
73572;DHT22;61854;48.510;-2.770;2023-05-10T15:06:38;18.60;60.90
73572;DHT22;61854;48.510;-2.770;2023-05-10T15:09:04;18.80;61.40
73572;DHT22;61854;48.510;-2.770;2023-05-10T15:11:29;19.60;57.60
73572;DHT22;61854;48.510;-2.770;2023-05-10T15:13:55;20.30;52.80
73572;DHT22;61854;48.510;-2.770;2023-05-10T15:16:21;20.80;51.80
73572;DHT22;61854;48.510;-2.770;2023-05-10T15:18:46;21.30;50.10
73572;DHT22;61854;48.510;-2.770;2023-05-10T15:21:12;21.90;50.50
73572;DHT22;61854;48.510;-2.770;2023-05-10T15:23:38;22.40;48.50
73572;DHT22;61854;48.510;-2.770;2023-05-10T15:26:03;22.60;47.90
73572;DHT22;61854;48.510;-2.770;2023-05-10T15:28:29;22.80;45.90
73572;DHT22;61854;48.510;-2.770;2023-05-10T15:30:55;23.10;45.70
73572;DHT22;61854;48.510;-2.770;2023-05-10T15:33:20;23.40;44.50
73572;DHT22;61854;48.510;-2.770;2023-05-10T15:35:46;23.70;43.50
73572;DHT22;61854;48.510;-2.770;2023-05-10T15:38:11;23.80;43.30
73572;DHT22;61854;48.510;-2.770;2023-05-10T15:40:37;23.60;43.40